createdAt,value
2018-04-15T00:02:05.129Z,7.38
2018-04-15T00:04:33.380Z,7.26
2018-04-15T00:07:01.025Z,7.38
2018-04-15T00:09:28.919Z,7.50
2018-04-15T00:11:56.741Z,7.57
2018-04-15T00:14:26.197Z,7.55
2018-04-15T00:16:54.070Z,7.29
2018-04-15T00:19:21.815Z,7.39
2018-04-15T00:21:49.552Z,7.51
2018-04-15T00:24:17.127Z,7.12
2018-04-15T00:26:45.128Z,7.33
2018-04-15T00:29:12.898Z,6.91
2018-04-15T00:31:40.564Z,7.13
2018-04-15T00:34:08.202Z,7.19
2018-04-15T00:36:35.946Z,7.17
2018-04-15T00:39:03.959Z,6.91
2018-04-15T00:41:31.508Z,6.95
2018-04-15T00:43:59.353Z,7.09
2018-04-15T00:46:27.085Z,6.77
2018-04-15T00:48:55.213Z,6.37
2018-04-15T00:51:22.871Z,6.18
2018-04-15T00:54:02.458Z,6.26
2018-04-15T00:56:30.385Z,6.21
2018-04-15T00:58:57.990Z,6.72
2018-04-15T01:01:25.867Z,6.83
2018-04-15T01:03:53.372Z,6.17
2018-04-15T01:06:21.386Z,6.08
2018-04-15T01:08:49.122Z,6.25
2018-04-15T01:11:17.134Z,6.55
2018-04-15T01:13:44.812Z,6.44
2018-04-15T01:16:12.790Z,6.48
2018-04-15T01:18:40.507Z,6.65
2018-04-15T01:21:08.411Z,6.67
2018-04-15T01:23:36.263Z,6.38
2018-04-15T01:26:03.799Z,6.17
2018-04-15T01:28:31.476Z,6.36
2018-04-15T01:30:59.449Z,6.74
2018-04-15T01:33:27.397Z,6.44
2018-04-15T01:35:55.512Z,6.45
2018-04-15T01:38:23.172Z,6.29
2018-04-15T01:40:50.702Z,6.04
2018-04-15T01:43:18.379Z,6.07
2018-04-15T01:45:46.014Z,6.57
2018-04-15T01:48:13.872Z,6.56
2018-04-15T01:50:41.386Z,6.46
2018-04-15T01:53:09.249Z,6.58
2018-04-15T01:55:36.803Z,6.15
2018-04-15T01:58:04.322Z,5.73
2018-04-15T02:00:31.906Z,5.96
2018-04-15T02:03:00.903Z,6.02
2018-04-15T02:05:29.275Z,5.86
2018-04-15T02:07:57.381Z,5.66
2018-04-15T02:10:25.467Z,5.88
2018-04-15T02:12:52.999Z,6.23
2018-04-15T02:15:21.004Z,6.25
2018-04-15T02:17:48.681Z,5.93
2018-04-15T02:20:16.419Z,5.55
2018-04-15T02:22:44.228Z,5.66
2018-04-15T02:25:11.878Z,5.41
2018-04-15T02:27:39.888Z,5.36
2018-04-15T02:30:07.480Z,5.23
2018-04-15T02:32:35.066Z,5.17
2018-04-15T02:35:02.585Z,4.98
2018-04-15T02:37:30.128Z,5.27
2018-04-15T02:39:57.743Z,5.46
2018-04-15T02:42:25.710Z,5.61
2018-04-15T02:44:53.723Z,5.87
2018-04-15T02:47:21.479Z,5.55
2018-04-15T02:49:49.543Z,5.49
2018-04-15T02:52:17.168Z,5.32
2018-04-15T02:54:45.002Z,5.13
2018-04-15T02:57:12.604Z,5.38
2018-04-15T02:59:40.517Z,5.26
2018-04-15T03:02:08.156Z,5.50
2018-04-15T03:04:35.709Z,5.26
2018-04-15T03:07:03.454Z,5.75
2018-04-15T03:09:31.197Z,5.74
2018-04-15T03:11:59.024Z,5.20
2018-04-15T03:14:26.759Z,4.89
2018-04-15T03:16:54.480Z,4.56
2018-04-15T03:19:22.050Z,4.77
2018-04-15T03:21:49.829Z,4.53
2018-04-15T03:24:17.554Z,4.51
2018-04-15T03:26:45.475Z,4.46
2018-04-15T03:29:13.033Z,4.96
2018-04-15T03:31:40.715Z,5.14
2018-04-15T03:34:09.409Z,4.64
2018-04-15T03:36:37.346Z,4.80
2018-04-15T03:39:05.895Z,4.89
2018-04-15T03:41:33.689Z,5.07
2018-04-15T03:44:01.413Z,4.55
2018-04-15T03:46:29.475Z,4.44
2018-04-15T03:48:57.258Z,4.34
2018-04-15T03:51:24.813Z,4.27
2018-04-15T03:53:52.335Z,4.70
2018-04-15T03:56:19.899Z,4.99
2018-04-15T03:58:47.870Z,4.60
2018-04-15T04:01:15.679Z,4.25
2018-04-15T04:03:43.342Z,4.35
2018-04-15T04:06:11.158Z,4.44
2018-04-15T04:08:38.688Z,4.44
2018-04-15T04:11:06.379Z,4.80
2018-04-15T04:13:34.018Z,5.04
2018-04-15T04:16:01.727Z,5.21
2018-04-15T04:18:41.477Z,4.57
2018-04-15T04:21:20.909Z,4.41
2018-04-15T04:24:00.459Z,4.91
2018-04-15T04:26:28.148Z,4.90
2018-04-15T04:28:55.772Z,4.41
2018-04-15T04:31:23.334Z,3.90
2018-04-15T04:33:51.045Z,3.85
2018-04-15T04:36:18.640Z,4.01
2018-04-15T04:38:46.558Z,4.39
2018-04-15T04:41:14.153Z,4.78
2018-04-15T04:43:41.811Z,4.62
2018-04-15T04:46:09.788Z,4.28
2018-04-15T04:48:37.414Z,4.47
2018-04-15T04:51:04.935Z,4.64
2018-04-15T04:53:32.744Z,4.87
2018-04-15T04:56:00.504Z,4.75
2018-04-15T04:58:28.331Z,4.75
2018-04-15T05:00:55.885Z,4.16
2018-04-15T05:03:23.514Z,4.12
2018-04-15T05:05:51.669Z,4.46
2018-04-15T05:08:19.336Z,4.54
2018-04-15T05:10:47.018Z,4.43
2018-04-15T05:13:14.695Z,4.23
2018-04-15T05:15:42.434Z,4.32
2018-04-15T05:18:09.970Z,4.64
2018-04-15T05:20:37.579Z,4.88
2018-04-15T05:23:05.113Z,5.52
2018-04-15T05:25:33.031Z,5.44
2018-04-15T05:28:00.923Z,4.76
2018-04-15T05:30:28.630Z,4.65
2018-04-15T05:32:56.789Z,4.89
2018-04-15T05:35:24.335Z,5.41
2018-04-15T05:37:52.002Z,6.09
2018-04-15T05:40:19.723Z,6.48
2018-04-15T05:42:47.384Z,6.24
2018-04-15T05:45:15.017Z,6.57
2018-04-15T05:47:42.568Z,6.72
2018-04-15T05:50:10.239Z,6.80
2018-04-15T05:52:38.111Z,6.59
2018-04-15T05:55:06.225Z,6.73
2018-04-15T05:57:33.823Z,6.15
2018-04-15T06:00:01.346Z,6.69
2018-04-15T06:02:29.155Z,6.95
2018-04-15T06:04:56.709Z,7.14
2018-04-15T06:07:24.529Z,7.55
2018-04-15T06:09:52.173Z,7.84
2018-04-15T06:12:19.980Z,7.96
2018-04-15T06:14:47.709Z,7.96
2018-04-15T06:17:15.609Z,7.86
2018-04-15T06:19:43.358Z,8.36
2018-04-15T06:22:11.142Z,8.35
2018-04-15T06:24:38.856Z,8.84
2018-04-15T06:27:06.334Z,8.63
2018-04-15T06:29:34.224Z,8.77
2018-04-15T06:32:02.004Z,9.09
2018-04-15T06:34:30.106Z,9.60
2018-04-15T06:36:57.732Z,9.43
2018-04-15T06:39:25.736Z,9.78
2018-04-15T06:41:53.344Z,10.50
2018-04-15T06:44:21.571Z,10.45
2018-04-15T06:46:49.295Z,9.86
2018-04-15T06:49:17.101Z,10.70
2018-04-15T06:51:45.672Z,10.69
2018-04-15T06:54:13.355Z,11.38
2018-04-15T06:56:41.128Z,11.66
2018-04-15T06:59:09.188Z,11.84
2018-04-15T07:01:37.188Z,11.85
2018-04-15T07:04:05.064Z,12.33
2018-04-15T07:06:32.848Z,12.81
2018-04-15T07:09:00.782Z,13.38
2018-04-15T07:11:28.537Z,13.88
2018-04-15T07:13:56.830Z,13.83
2018-04-15T07:16:24.403Z,12.70
2018-04-15T07:18:52.055Z,12.99
2018-04-15T07:21:19.590Z,14.00
2018-04-15T07:23:48.229Z,15.03
2018-04-15T07:26:16.936Z,14.93
2018-04-15T07:28:44.490Z,14.92
2018-04-15T07:31:12.277Z,15.67
2018-04-15T07:33:39.929Z,16.39
2018-04-15T07:36:07.432Z,15.59
2018-04-15T07:38:35.109Z,14.41
2018-04-15T07:41:02.676Z,16.16
2018-04-15T07:43:30.411Z,15.03
2018-04-15T07:45:58.136Z,15.78
2018-04-15T07:48:25.749Z,16.57
2018-04-15T07:50:53.691Z,15.75
2018-04-15T07:53:21.285Z,17.11
2018-04-15T07:55:49.095Z,15.88
2018-04-15T07:58:16.791Z,16.24
2018-04-15T08:00:44.710Z,16.70
2018-04-15T08:03:12.863Z,17.17
2018-04-15T08:05:40.871Z,16.87
2018-04-15T08:08:08.551Z,16.19
2018-04-15T08:10:36.237Z,16.20
2018-04-15T08:13:03.826Z,15.83
2018-04-15T08:15:31.830Z,16.54
2018-04-15T08:17:59.513Z,16.91
2018-04-15T08:20:27.071Z,18.01
2018-04-15T08:22:54.847Z,16.66
2018-04-15T08:25:22.763Z,18.72
2018-04-15T08:27:50.516Z,18.45
2018-04-15T08:30:18.330Z,17.78
2018-04-15T08:32:46.252Z,17.86
2018-04-15T08:35:14.037Z,19.29
2018-04-15T08:37:41.756Z,18.86
2018-04-15T08:40:09.370Z,18.94
2018-04-15T08:42:37.245Z,17.41
2018-04-15T08:45:04.865Z,16.74
2018-04-15T08:47:32.411Z,16.88
2018-04-15T08:50:00.342Z,17.77
2018-04-15T08:52:28.270Z,17.22
2018-04-15T08:54:56.205Z,17.93
2018-04-15T08:57:23.967Z,18.10
2018-04-15T08:59:51.728Z,17.57
2018-04-15T09:02:19.516Z,18.67
2018-04-15T09:04:47.216Z,20.31
2018-04-15T09:07:15.214Z,21.47
2018-04-15T09:09:42.870Z,20.72
2018-04-15T09:12:11.169Z,20.69
2018-04-15T09:14:39.181Z,20.45
2018-04-15T09:17:06.949Z,21.00
2018-04-15T09:19:34.615Z,19.32
2018-04-15T09:22:02.521Z,19.39
2018-04-15T09:24:30.155Z,19.58
2018-04-15T09:26:57.810Z,20.74
2018-04-15T09:29:25.636Z,21.11
2018-04-15T09:31:53.735Z,20.96
2018-04-15T09:34:21.476Z,22.48
2018-04-15T09:36:49.114Z,21.42
2018-04-15T09:39:16.716Z,20.38
2018-04-15T09:41:44.773Z,18.88
2018-04-15T09:44:12.486Z,19.12
2018-04-15T09:46:40.068Z,22.78
2018-04-15T09:49:07.785Z,23.91
2018-04-15T09:51:35.626Z,23.03
2018-04-15T09:54:03.415Z,22.03
2018-04-15T09:56:31.164Z,21.08
2018-04-15T09:58:58.894Z,19.46
2018-04-15T10:01:26.703Z,22.24
2018-04-15T10:03:54.238Z,22.62
2018-04-15T10:06:21.817Z,25.31
2018-04-15T10:08:49.375Z,26.66
2018-04-15T10:11:17.083Z,27.80
2018-04-15T10:13:44.634Z,27.43
2018-04-15T10:16:12.289Z,26.65
2018-04-15T10:18:39.800Z,25.26
2018-04-15T10:21:07.524Z,26.33
2018-04-15T10:23:35.184Z,28.60
2018-04-15T10:26:02.904Z,29.46
2018-04-15T10:28:30.559Z,30.03
2018-04-15T10:30:58.200Z,28.73
2018-04-15T10:33:25.813Z,28.47
2018-04-15T10:35:53.452Z,27.53
2018-04-15T10:38:21.084Z,26.68
2018-04-15T10:40:48.647Z,27.78
2018-04-15T10:43:16.236Z,28.22
2018-04-15T10:45:43.830Z,28.14
2018-04-15T10:48:11.353Z,25.88
2018-04-15T10:50:39.012Z,25.19
2018-04-15T10:53:07.043Z,26.85
2018-04-15T10:55:34.670Z,26.49
2018-04-15T10:58:02.374Z,26.97
2018-04-15T11:00:30.271Z,26.31
2018-04-15T11:02:57.978Z,25.57
2018-04-15T11:05:25.515Z,25.61
2018-04-15T11:07:53.043Z,24.29
2018-04-15T11:10:20.827Z,24.46
2018-04-15T11:12:48.423Z,23.68
2018-04-15T11:15:15.982Z,24.59
2018-04-15T11:17:43.807Z,24.46
2018-04-15T11:20:11.625Z,25.54
2018-04-15T11:22:39.207Z,26.16
2018-04-15T11:25:06.838Z,26.58
2018-04-15T11:27:34.442Z,24.57
2018-04-15T11:30:02.026Z,23.68
2018-04-15T11:32:29.590Z,24.14
2018-04-15T11:34:57.151Z,23.16
2018-04-15T11:37:24.660Z,22.42
2018-04-15T11:39:52.496Z,22.86
2018-04-15T11:42:20.126Z,22.26
2018-04-15T11:44:47.823Z,22.60
2018-04-15T11:47:15.977Z,21.33
2018-04-15T11:49:43.551Z,21.83
2018-04-15T11:52:11.312Z,21.35
2018-04-15T11:54:38.869Z,21.37
2018-04-15T11:57:06.485Z,21.95
2018-04-15T11:59:34.157Z,21.66
2018-04-15T12:02:01.686Z,21.90
2018-04-15T12:04:29.361Z,22.28
2018-04-15T12:06:57.291Z,22.31
2018-04-15T12:09:24.891Z,22.42
2018-04-15T12:11:53.837Z,22.05
2018-04-15T12:14:21.851Z,21.97
2018-04-15T12:16:49.396Z,22.42
2018-04-15T12:19:17.001Z,22.00
2018-04-15T12:21:45.009Z,22.27
2018-04-15T12:24:12.546Z,22.56
2018-04-15T12:26:40.163Z,23.28
2018-04-15T12:29:07.696Z,24.90
2018-04-15T12:31:35.285Z,25.01
2018-04-15T12:34:02.816Z,25.36
2018-04-15T12:36:30.368Z,26.30
2018-04-15T12:38:58.047Z,27.50
2018-04-15T12:41:25.807Z,27.76
2018-04-15T12:43:54.068Z,29.95
2018-04-15T12:46:21.602Z,31.64
2018-04-15T12:48:49.137Z,31.27
2018-04-15T12:51:16.665Z,31.11
2018-04-15T12:53:44.270Z,32.29
2018-04-15T12:56:11.802Z,31.40
2018-04-15T12:58:39.317Z,32.36
2018-04-15T13:01:07.016Z,33.79
2018-04-15T13:03:34.578Z,32.42
2018-04-15T13:06:02.377Z,32.14
2018-04-15T13:08:30.392Z,33.04
2018-04-15T13:10:58.113Z,32.26
2018-04-15T13:13:26.313Z,32.01
2018-04-15T13:15:54.084Z,34.17
2018-04-15T13:18:21.764Z,33.84
2018-04-15T13:20:49.382Z,31.82
2018-04-15T13:23:16.899Z,31.67
2018-04-15T13:25:44.554Z,30.23
2018-04-15T13:28:12.968Z,31.60
2018-04-15T13:30:40.522Z,31.98
2018-04-15T13:33:08.050Z,31.67
2018-04-15T13:35:35.583Z,31.23
2018-04-15T13:38:03.302Z,31.20
2018-04-15T13:40:30.987Z,31.21
2018-04-15T13:42:58.528Z,30.31
2018-04-15T13:45:26.147Z,31.19
2018-04-15T13:47:53.675Z,29.74
2018-04-15T13:50:21.318Z,26.88
2018-04-15T13:52:49.014Z,27.82
2018-04-15T13:55:17.564Z,30.96
2018-04-15T13:57:45.133Z,28.36
2018-04-15T14:00:12.875Z,28.48
2018-04-15T14:02:40.522Z,27.33
2018-04-15T14:05:08.159Z,28.06
2018-04-15T14:07:35.819Z,28.78
2018-04-15T14:10:03.462Z,26.87
2018-04-15T14:12:31.019Z,25.73
2018-04-15T14:14:58.729Z,25.94
2018-04-15T14:17:26.257Z,25.77
2018-04-15T14:19:53.931Z,24.85
2018-04-15T14:22:21.583Z,24.64
2018-04-15T14:24:49.107Z,24.24
2018-04-15T14:27:16.702Z,23.85
2018-04-15T14:29:44.245Z,24.06
2018-04-15T14:32:11.845Z,23.74
2018-04-15T14:34:39.373Z,23.80
2018-04-15T14:37:06.924Z,23.66
2018-04-15T14:39:34.483Z,23.35
2018-04-15T14:42:02.175Z,23.49
2018-04-15T14:44:29.744Z,23.28
2018-04-15T14:46:57.338Z,23.44
2018-04-15T14:49:24.938Z,23.50
2018-04-15T14:51:52.455Z,23.57
2018-04-15T14:54:20.046Z,22.90
2018-04-15T14:56:47.652Z,23.74
2018-04-15T14:59:15.404Z,23.52
2018-04-15T15:01:42.953Z,22.96
2018-04-15T15:04:10.564Z,23.04
2018-04-15T15:06:38.158Z,23.11
2018-04-15T15:09:06.577Z,22.80
2018-04-15T15:11:34.114Z,22.53
2018-04-15T15:14:01.875Z,22.73
2018-04-15T15:16:29.473Z,22.41
2018-04-15T15:18:57.079Z,22.60
2018-04-15T15:21:24.788Z,22.73
2018-04-15T15:23:52.464Z,21.99
2018-04-15T15:26:20.108Z,21.90
2018-04-15T15:28:47.797Z,22.52
2018-04-15T15:31:15.820Z,22.36
2018-04-15T15:33:43.359Z,22.30
2018-04-15T15:36:10.897Z,22.66
2018-04-15T15:38:38.650Z,23.19
2018-04-15T15:41:06.419Z,22.70
2018-04-15T15:43:33.957Z,22.35
2018-04-15T15:46:02.364Z,22.13
2018-04-15T15:48:29.894Z,21.99
2018-04-15T15:50:57.461Z,22.19
2018-04-15T15:53:25.025Z,21.54
2018-04-15T15:55:52.728Z,21.53
2018-04-15T15:58:20.263Z,21.43
2018-04-15T16:00:47.883Z,21.57
2018-04-15T16:03:15.542Z,22.01
2018-04-15T16:05:43.090Z,21.99
2018-04-15T16:08:10.897Z,22.19
2018-04-15T16:10:38.424Z,22.16
2018-04-15T16:13:06.079Z,22.21
2018-04-15T16:15:33.733Z,22.07
2018-04-15T16:18:01.399Z,21.95
2018-04-15T16:20:28.958Z,21.79
2018-04-15T16:22:56.595Z,21.89
2018-04-15T16:25:24.434Z,21.60
2018-04-15T16:27:52.153Z,21.57
2018-04-15T16:30:20.039Z,21.71
2018-04-15T16:32:47.604Z,21.70
2018-04-15T16:35:15.164Z,21.52
2018-04-15T16:37:42.909Z,21.10
2018-04-15T16:40:10.544Z,21.43
2018-04-15T16:42:38.190Z,20.94
2018-04-15T16:45:05.777Z,20.96
2018-04-15T16:47:33.396Z,20.95
2018-04-15T16:50:01.619Z,20.89
2018-04-15T16:52:29.244Z,20.59
2018-04-15T16:54:57.205Z,20.51
2018-04-15T16:57:24.730Z,20.37
2018-04-15T16:59:52.292Z,20.33
2018-04-15T17:02:19.958Z,20.14
2018-04-15T17:04:47.612Z,20.15
2018-04-15T17:07:15.555Z,20.38
2018-04-15T17:09:43.215Z,20.31
2018-04-15T17:12:10.809Z,20.09
2018-04-15T17:14:38.581Z,19.93
2018-04-15T17:17:06.256Z,19.89
2018-04-15T17:19:33.809Z,20.04
2018-04-15T17:22:01.488Z,19.77
2018-04-15T17:24:29.043Z,19.56
2018-04-15T17:26:56.595Z,19.24
2018-04-15T17:29:24.255Z,19.40
2018-04-15T17:31:51.902Z,19.15
2018-04-15T17:34:19.465Z,19.00
2018-04-15T17:36:47.213Z,18.88
2018-04-15T17:39:14.974Z,18.81
2018-04-15T17:41:42.807Z,18.59
2018-04-15T17:44:10.559Z,18.44
2018-04-15T17:46:38.372Z,18.46
2018-04-15T17:49:06.437Z,18.47
2018-04-15T17:51:34.199Z,18.37
2018-04-15T17:54:02.014Z,18.41
2018-04-15T17:56:30.090Z,18.24
2018-04-15T17:58:57.747Z,18.19
2018-04-15T18:01:25.359Z,17.98
2018-04-15T18:03:52.983Z,17.98
2018-04-15T18:06:20.774Z,17.83
2018-04-15T18:08:49.394Z,17.79
2018-04-15T18:11:17.043Z,17.81
2018-04-15T18:13:44.756Z,17.97
2018-04-15T18:16:12.531Z,17.80
2018-04-15T18:18:40.159Z,17.67
2018-04-15T18:21:07.809Z,17.74
2018-04-15T18:23:35.631Z,17.60
2018-04-15T18:26:03.280Z,17.46
2018-04-15T18:28:30.979Z,17.32
2018-04-15T18:30:58.569Z,17.17
2018-04-15T18:33:26.273Z,17.12
2018-04-15T18:35:54.133Z,17.30
2018-04-15T18:38:21.911Z,16.97
2018-04-15T18:40:51.273Z,16.80
2018-04-15T18:43:18.871Z,16.77
2018-04-15T18:45:46.444Z,16.85
2018-04-15T18:48:14.132Z,16.60
2018-04-15T18:50:41.926Z,16.45
2018-04-15T18:53:09.609Z,16.38
2018-04-15T18:55:37.373Z,16.36
2018-04-15T18:58:04.937Z,16.34
2018-04-15T19:00:32.667Z,16.22
2018-04-15T19:03:00.248Z,16.17
2018-04-15T19:05:28.014Z,16.37
2018-04-15T19:07:55.666Z,16.31
2018-04-15T19:10:23.234Z,16.18
2018-04-15T19:12:50.904Z,16.07
2018-04-15T19:15:18.764Z,15.93
2018-04-15T19:17:46.464Z,15.94
2018-04-15T19:20:14.026Z,15.98
2018-04-15T19:22:41.756Z,15.96
2018-04-15T19:25:09.340Z,15.93
2018-04-15T19:27:36.967Z,16.02
2018-04-15T19:30:04.850Z,15.73
2018-04-15T19:32:32.464Z,15.74
2018-04-15T19:35:00.186Z,15.67
2018-04-15T19:37:27.752Z,15.73
2018-04-15T19:39:55.325Z,15.79
2018-04-15T19:42:22.862Z,15.58
2018-04-15T19:44:50.425Z,15.72
2018-04-15T19:47:18.865Z,15.73
2018-04-15T19:49:46.817Z,15.82
2018-04-15T19:52:14.349Z,15.60
2018-04-15T19:54:42.112Z,15.72
2018-04-15T19:57:09.686Z,15.34
2018-04-15T19:59:37.361Z,15.27
2018-04-15T20:02:04.957Z,14.91
2018-04-15T20:04:32.690Z,14.75
2018-04-15T20:07:00.347Z,14.77
2018-04-15T20:09:28.076Z,14.88
2018-04-15T20:11:55.836Z,15.09
2018-04-15T20:14:23.404Z,14.99
2018-04-15T20:16:51.029Z,15.12
2018-04-15T20:19:18.649Z,15.11
2018-04-15T20:21:46.315Z,14.76
2018-04-15T20:24:14.054Z,14.75
2018-04-15T20:26:41.772Z,14.64
2018-04-15T20:29:09.544Z,14.68
2018-04-15T20:31:37.169Z,14.57
2018-04-15T20:34:04.711Z,14.64
2018-04-15T20:36:32.472Z,14.65
2018-04-15T20:39:00.034Z,14.68
2018-04-15T20:41:27.681Z,14.74
2018-04-15T20:43:55.225Z,14.29
2018-04-15T20:46:22.886Z,14.15
2018-04-15T20:48:50.628Z,14.50
2018-04-15T20:51:18.260Z,14.66
2018-04-15T20:53:45.868Z,14.92
2018-04-15T20:56:13.568Z,14.54
2018-04-15T20:58:41.297Z,14.07
2018-04-15T21:01:08.951Z,14.15
2018-04-15T21:03:36.576Z,14.30
2018-04-15T21:06:04.289Z,14.16
2018-04-15T21:08:31.935Z,13.96
2018-04-15T21:10:59.690Z,13.97
2018-04-15T21:13:27.240Z,13.90
2018-04-15T21:15:54.982Z,13.74
2018-04-15T21:18:22.526Z,13.66
2018-04-15T21:20:50.191Z,13.63
2018-04-15T21:23:17.869Z,13.66
2018-04-15T21:25:46.305Z,13.78
2018-04-15T21:28:13.935Z,13.91
2018-04-15T21:30:41.511Z,13.87
2018-04-15T21:33:12.235Z,13.75
2018-04-15T21:35:39.778Z,13.87
2018-04-15T21:38:07.316Z,13.89
2018-04-15T21:40:35.202Z,13.71
2018-04-15T21:43:03.035Z,13.61
2018-04-15T21:45:30.837Z,13.71
2018-04-15T21:47:58.360Z,14.06
2018-04-15T21:50:25.931Z,13.93
2018-04-15T21:52:53.485Z,13.48
2018-04-15T21:55:21.112Z,13.39
2018-04-15T21:57:48.846Z,13.51
2018-04-15T22:00:16.465Z,13.61
2018-04-15T22:02:44.034Z,13.76
2018-04-15T22:05:11.656Z,13.89
2018-04-15T22:07:39.605Z,13.81
2018-04-15T22:10:07.170Z,14.04
2018-04-15T22:12:34.964Z,14.12
2018-04-15T22:15:02.490Z,14.10
2018-04-15T22:17:30.284Z,13.66
2018-04-15T22:19:57.917Z,13.30
2018-04-15T22:22:25.567Z,13.24
2018-04-15T22:24:53.225Z,13.32
2018-04-15T22:27:20.929Z,13.44
2018-04-15T22:29:48.615Z,13.49
2018-04-15T22:32:16.486Z,13.50
2018-04-15T22:34:44.576Z,13.43
2018-04-15T22:37:12.571Z,13.56
2018-04-15T22:39:40.248Z,13.74
2018-04-15T22:42:08.081Z,13.80
2018-04-15T22:44:36.512Z,14.08
2018-04-15T22:47:04.201Z,14.14
2018-04-15T22:49:32.151Z,14.19
2018-04-15T22:51:59.776Z,13.98
2018-04-15T22:54:27.472Z,13.77
2018-04-15T22:56:55.337Z,13.93
2018-04-15T22:59:22.882Z,14.07
2018-04-15T23:01:50.442Z,14.07
2018-04-15T23:04:17.986Z,14.04
2018-04-15T23:06:45.667Z,14.19
2018-04-15T23:09:13.450Z,14.18
2018-04-15T23:11:41.262Z,14.20
2018-04-15T23:14:09.491Z,14.27
2018-04-15T23:16:37.041Z,14.13
2018-04-15T23:19:05.065Z,14.18
2018-04-15T23:21:32.603Z,14.26
2018-04-15T23:24:00.164Z,14.19
2018-04-15T23:26:27.943Z,14.25
2018-04-15T23:28:55.686Z,14.33
2018-04-15T23:31:23.397Z,14.25
2018-04-15T23:33:51.143Z,13.96
2018-04-15T23:36:18.708Z,13.93
2018-04-15T23:38:46.361Z,13.60
2018-04-15T23:41:14.327Z,13.44
2018-04-15T23:43:41.861Z,13.47
2018-04-15T23:46:09.744Z,13.40
2018-04-15T23:48:37.423Z,13.53
2018-04-15T23:51:05.035Z,13.43
2018-04-15T23:53:32.696Z,13.30
2018-04-15T23:56:00.448Z,13.17
2018-04-15T23:58:28.416Z,13.10
